GO01 weather

Gorizia Airport
Gorizia, Friuli-Venezia Giulia, Italy

Public forecast

Using degrees Celsius for public forecast. Weather courtesy of forecast.io.

METAR (pilot weather report)

Closest report is Trieste–Friuli Venezia Giulia Airport, 7.1 nm (13.2 km) SW. Retrieved 2019/09/15 04:20 UTC (10 minutes ago):

LIPQ 150420Z 29004KT 9999 BKN070 19/16 Q1025

TAF (pilot weather forecast)

Forecast is more than 12 hours old.

Closest forecast is Trieste–Friuli Venezia Giulia Airport, 7.1 nm (13.2 km) SW. Retrieved 2019/09/14 00:22 UTC (1 day ago):

TAF LIPQ 142300Z 1500/1524 VRB05KT CAVOK